createdAt,value
2018-03-26T00:00:11.053Z,72.57
2018-03-26T00:02:36.905Z,72.54
2018-03-26T00:05:02.777Z,72.75
2018-03-26T00:07:28.957Z,73.39
2018-03-26T00:09:54.896Z,73.60
2018-03-26T00:12:20.809Z,73.69
2018-03-26T00:14:46.698Z,73.69
2018-03-26T00:17:12.550Z,73.21
2018-03-26T00:19:38.409Z,72.58
2018-03-26T00:22:04.413Z,73.69
2018-03-26T00:24:30.273Z,74.18
2018-03-26T00:26:56.124Z,74.31
2018-03-26T00:29:22.007Z,74.67
2018-03-26T00:31:47.864Z,73.35
2018-03-26T00:34:13.797Z,73.63
2018-03-26T00:36:39.688Z,73.87
2018-03-26T00:39:05.567Z,74.03
2018-03-26T00:41:31.425Z,75.32
2018-03-26T00:43:57.321Z,74.95
2018-03-26T00:46:23.269Z,74.39
2018-03-26T00:48:49.116Z,75.09
2018-03-26T00:51:15.070Z,75.81
2018-03-26T00:53:42.997Z,76.26
2018-03-26T00:56:08.874Z,75.88
2018-03-26T00:58:34.828Z,76.10
2018-03-26T01:01:00.685Z,75.07
2018-03-26T01:03:26.554Z,74.05
2018-03-26T01:05:52.476Z,74.47
2018-03-26T01:08:18.321Z,74.40
2018-03-26T01:10:44.278Z,74.57
2018-03-26T01:13:10.172Z,74.98
2018-03-26T01:15:36.033Z,75.42
2018-03-26T01:18:01.913Z,75.48
2018-03-26T01:20:27.824Z,76.06
2018-03-26T01:22:53.784Z,76.15
2018-03-26T01:25:19.635Z,75.36
2018-03-26T01:27:45.541Z,75.60
2018-03-26T01:30:11.388Z,75.03
2018-03-26T01:32:37.237Z,73.52
2018-03-26T01:35:03.224Z,73.20
2018-03-26T01:37:29.078Z,74.06
2018-03-26T01:39:54.920Z,75.78
2018-03-26T01:42:21.112Z,76.08
2018-03-26T01:44:46.960Z,75.98
2018-03-26T01:47:12.911Z,75.89
2018-03-26T01:49:38.812Z,76.04
2018-03-26T01:52:04.706Z,75.71
2018-03-26T01:54:30.570Z,76.84
2018-03-26T01:56:56.478Z,76.21
2018-03-26T01:59:22.423Z,75.26
2018-03-26T02:01:48.273Z,76.48
2018-03-26T02:04:14.238Z,76.83
2018-03-26T02:06:40.090Z,76.79
2018-03-26T02:09:05.960Z,74.26
2018-03-26T02:11:32.237Z,75.44
2018-03-26T02:13:58.097Z,76.40
2018-03-26T02:16:23.945Z,76.34
2018-03-26T02:18:49.865Z,77.25
2018-03-26T02:21:15.731Z,76.82
2018-03-26T02:23:41.684Z,77.07
2018-03-26T02:26:07.741Z,76.66
2018-03-26T02:28:33.605Z,76.72
2018-03-26T02:30:59.461Z,77.46
2018-03-26T02:33:25.366Z,76.65
2018-03-26T02:35:51.317Z,74.43
2018-03-26T02:38:17.177Z,74.02
2018-03-26T02:40:43.059Z,74.52
2018-03-26T02:43:08.930Z,73.89
2018-03-26T02:45:34.792Z,75.49
2018-03-26T02:48:00.796Z,76.29
2018-03-26T02:50:26.741Z,74.01
2018-03-26T02:52:52.598Z,73.63
2018-03-26T02:55:18.493Z,75.14
2018-03-26T02:57:44.345Z,73.24
2018-03-26T03:00:10.287Z,74.27
2018-03-26T03:02:36.182Z,73.12
2018-03-26T03:05:02.069Z,73.99
2018-03-26T03:07:27.929Z,74.35
2018-03-26T03:09:53.869Z,73.08
2018-03-26T03:12:19.800Z,74.88
2018-03-26T03:14:45.648Z,73.09
2018-03-26T03:17:11.844Z,73.04
2018-03-26T03:19:37.721Z,73.75
2018-03-26T03:22:03.629Z,72.88
2018-03-26T03:24:29.607Z,71.57
2018-03-26T03:26:55.461Z,73.68
2018-03-26T03:29:21.321Z,74.48
2018-03-26T03:31:47.225Z,72.56
2018-03-26T03:34:13.136Z,72.55
2018-03-26T03:36:39.085Z,72.58
2018-03-26T03:39:04.968Z,73.87
2018-03-26T03:41:30.820Z,72.90
2018-03-26T03:43:56.664Z,73.59
2018-03-26T03:46:22.644Z,74.80
2018-03-26T03:48:48.583Z,73.89
2018-03-26T03:51:14.435Z,74.45
2018-03-26T03:53:40.726Z,75.81
2018-03-26T03:56:06.607Z,75.28
2018-03-26T03:58:32.500Z,74.49
2018-03-26T04:00:58.502Z,74.74
2018-03-26T04:03:24.359Z,74.66
2018-03-26T04:05:50.238Z,74.30
2018-03-26T04:08:16.133Z,75.30
2018-03-26T04:10:42.024Z,75.89
2018-03-26T04:13:07.957Z,74.62
2018-03-26T04:15:33.852Z,74.43
2018-03-26T04:17:59.718Z,76.02
2018-03-26T04:20:25.564Z,74.71
2018-03-26T04:22:51.508Z,76.25
2018-03-26T04:25:17.457Z,76.10
2018-03-26T04:27:43.296Z,75.82
2018-03-26T04:30:09.194Z,77.07
2018-03-26T04:32:35.060Z,75.94
2018-03-26T04:35:00.968Z,76.79
2018-03-26T04:37:26.941Z,77.16
2018-03-26T04:39:52.800Z,75.81
2018-03-26T04:42:18.653Z,76.12
2018-03-26T04:44:44.544Z,77.05
2018-03-26T04:47:10.443Z,77.13
2018-03-26T04:49:36.389Z,77.16
2018-03-26T04:52:02.593Z,77.99
2018-03-26T04:54:28.466Z,78.65
2018-03-26T04:56:54.317Z,78.95
2018-03-26T04:59:20.365Z,76.71
2018-03-26T05:01:46.320Z,77.13
2018-03-26T05:04:12.182Z,77.63
2018-03-26T05:06:38.089Z,77.41
2018-03-26T05:09:03.972Z,78.30
2018-03-26T05:11:29.949Z,78.51
2018-03-26T05:13:55.880Z,77.69
2018-03-26T05:16:21.793Z,77.22
2018-03-26T05:18:47.884Z,75.92
2018-03-26T05:21:13.810Z,75.14
2018-03-26T05:23:39.669Z,74.72
2018-03-26T05:26:05.532Z,76.00
2018-03-26T05:28:31.739Z,74.65
2018-03-26T05:30:57.594Z,76.05
2018-03-26T05:33:23.599Z,76.75
2018-03-26T05:35:49.528Z,77.17
2018-03-26T05:38:15.400Z,75.81
2018-03-26T05:40:41.239Z,74.28
2018-03-26T05:43:07.150Z,74.98
2018-03-26T05:45:33.009Z,75.23
2018-03-26T05:47:58.865Z,76.66
2018-03-26T05:50:24.836Z,75.38
2018-03-26T05:52:50.698Z,76.84
2018-03-26T05:55:16.622Z,75.19
2018-03-26T05:57:42.869Z,73.43
2018-03-26T06:00:08.769Z,74.03
2018-03-26T06:02:34.759Z,72.36
2018-03-26T06:05:00.669Z,71.88
2018-03-26T06:07:26.538Z,72.51
2018-03-26T06:09:52.393Z,73.27
2018-03-26T06:12:18.292Z,74.73
2018-03-26T06:14:44.297Z,74.59
2018-03-26T06:17:15.848Z,72.21
2018-03-26T06:19:41.768Z,73.15
2018-03-26T06:22:07.677Z,75.47
2018-03-26T06:24:33.570Z,76.08
2018-03-26T06:26:59.560Z,71.97
2018-03-26T06:29:25.426Z,71.38
2018-03-26T06:31:51.288Z,72.12
2018-03-26T06:34:17.199Z,71.70
2018-03-26T06:36:49.220Z,72.74
2018-03-26T06:39:21.232Z,71.40
2018-03-26T06:41:47.554Z,70.97
2018-03-26T06:44:13.499Z,69.76
2018-03-26T06:46:39.473Z,69.82
2018-03-26T06:49:05.389Z,68.76
2018-03-26T06:51:31.362Z,69.31
2018-03-26T06:53:57.401Z,68.96
2018-03-26T06:56:23.367Z,68.99
2018-03-26T06:58:49.293Z,68.52
2018-03-26T07:01:15.328Z,68.29
2018-03-26T07:03:41.406Z,67.40
2018-03-26T07:06:07.278Z,67.80
2018-03-26T07:08:33.206Z,67.71
2018-03-26T07:10:59.076Z,67.63
2018-03-26T07:13:24.997Z,67.03
2018-03-26T07:15:50.913Z,66.83
2018-03-26T07:18:17.036Z,66.53
2018-03-26T07:20:42.956Z,66.33
2018-03-26T07:23:09.386Z,65.46
2018-03-26T07:25:35.288Z,66.06
2018-03-26T07:28:01.666Z,64.56
2018-03-26T07:30:27.602Z,64.07
2018-03-26T07:32:53.468Z,64.21
2018-03-26T07:35:19.440Z,64.24
2018-03-26T07:37:45.373Z,63.96
2018-03-26T07:40:11.266Z,64.03
2018-03-26T07:42:37.157Z,64.15
2018-03-26T07:45:03.089Z,63.52
2018-03-26T07:47:28.937Z,62.58
2018-03-26T07:49:54.776Z,63.35
2018-03-26T07:52:20.673Z,62.53
2018-03-26T07:54:46.540Z,61.10
2018-03-26T07:57:12.388Z,60.86
2018-03-26T07:59:38.305Z,61.97
2018-03-26T08:02:04.164Z,61.56
2018-03-26T08:04:30.223Z,62.01
2018-03-26T08:06:56.153Z,61.03
2018-03-26T08:09:22.025Z,60.62
2018-03-26T08:11:47.918Z,61.02
2018-03-26T08:14:13.840Z,60.13
2018-03-26T08:16:39.833Z,60.00
2018-03-26T08:19:05.692Z,60.66
2018-03-26T08:21:31.597Z,60.50
2018-03-26T08:23:57.465Z,60.70
2018-03-26T08:26:23.316Z,60.25
2018-03-26T08:28:49.303Z,60.13
2018-03-26T08:31:15.253Z,59.99
2018-03-26T08:33:41.224Z,59.80
2018-03-26T08:36:07.498Z,59.56
2018-03-26T08:38:33.348Z,60.18
2018-03-26T08:40:59.342Z,59.80
2018-03-26T08:43:25.346Z,60.83
2018-03-26T08:45:51.214Z,60.56
2018-03-26T08:48:17.121Z,60.08
2018-03-26T08:50:43.046Z,60.63
2018-03-26T08:53:09.092Z,59.62
2018-03-26T08:55:34.937Z,59.88
2018-03-26T08:58:00.890Z,60.51
2018-03-26T09:00:26.764Z,60.11
2018-03-26T09:02:52.646Z,60.36
2018-03-26T09:05:18.949Z,60.21
2018-03-26T09:07:44.915Z,60.70
2018-03-26T09:10:10.842Z,60.23
2018-03-26T09:12:36.948Z,61.27
2018-03-26T09:15:02.826Z,61.38
2018-03-26T09:17:28.756Z,61.74
2018-03-26T09:19:55.834Z,62.42
2018-03-26T09:22:21.733Z,62.57
2018-03-26T09:24:47.581Z,62.53
2018-03-26T09:27:13.510Z,62.64
2018-03-26T09:29:39.385Z,62.87
2018-03-26T09:32:16.618Z,63.40
2018-03-26T09:34:43.277Z,64.24
2018-03-26T09:37:09.145Z,63.94
2018-03-26T09:39:35.002Z,63.55
2018-03-26T09:42:00.914Z,64.29
2018-03-26T09:44:26.811Z,64.42
2018-03-26T09:46:52.664Z,63.30
2018-03-26T09:49:18.617Z,63.96
2018-03-26T09:51:44.618Z,63.14
2018-03-26T09:54:10.522Z,63.06
2018-03-26T09:56:36.498Z,62.96
2018-03-26T09:59:02.370Z,63.40
2018-03-26T10:01:31.125Z,63.46
2018-03-26T10:03:57.033Z,63.28
2018-03-26T10:06:22.916Z,63.70
2018-03-26T10:08:48.776Z,63.66
2018-03-26T10:11:14.683Z,63.29
2018-03-26T10:13:40.555Z,63.08
2018-03-26T10:16:06.463Z,63.11
2018-03-26T10:18:32.442Z,62.86
2018-03-26T10:20:58.332Z,62.59
2018-03-26T10:23:24.210Z,62.14
2018-03-26T10:25:50.974Z,61.90
2018-03-26T10:28:16.853Z,62.59
2018-03-26T10:30:42.710Z,62.48
2018-03-26T10:33:08.622Z,62.94
2018-03-26T10:35:34.497Z,62.80
2018-03-26T10:38:00.367Z,63.33
2018-03-26T10:40:26.278Z,63.64
2018-03-26T10:42:52.161Z,63.18
2018-03-26T10:45:18.036Z,63.38
2018-03-26T10:47:43.941Z,63.76
2018-03-26T10:50:09.824Z,62.90
2018-03-26T10:52:35.702Z,62.39
2018-03-26T10:55:01.607Z,62.26
2018-03-26T10:57:27.479Z,61.66
2018-03-26T10:59:53.361Z,61.25
2018-03-26T11:02:19.286Z,62.42
2018-03-26T11:04:45.169Z,61.24
2018-03-26T11:07:11.073Z,61.90
2018-03-26T11:09:37.039Z,63.16
2018-03-26T11:12:02.926Z,62.03
2018-03-26T11:14:28.796Z,62.76
2018-03-26T11:16:54.698Z,62.47
2018-03-26T11:19:20.630Z,63.44
2018-03-26T11:21:46.508Z,62.98
2018-03-26T11:24:12.439Z,64.15
2018-03-26T11:26:38.313Z,62.78
2018-03-26T11:29:04.181Z,63.95
2018-03-26T11:31:30.098Z,64.17
2018-03-26T11:33:55.964Z,64.50
2018-03-26T11:36:21.902Z,65.43
2018-03-26T11:38:47.759Z,65.50
2018-03-26T11:41:13.630Z,66.23
2018-03-26T11:43:39.498Z,67.20
2018-03-26T11:46:05.426Z,67.52
2018-03-26T11:48:31.285Z,68.18
2018-03-26T11:50:57.143Z,68.57
2018-03-26T11:53:23.065Z,70.10
2018-03-26T11:55:48.922Z,70.64
2018-03-26T11:58:14.765Z,72.27
2018-03-26T12:00:40.669Z,72.31
2018-03-26T12:03:06.551Z,72.50
2018-03-26T12:05:32.425Z,73.53
2018-03-26T12:07:58.334Z,73.77
2018-03-26T12:10:24.210Z,74.60
2018-03-26T12:12:50.057Z,74.90
2018-03-26T12:15:15.965Z,75.03
2018-03-26T12:17:41.866Z,75.72
2018-03-26T12:20:20.364Z,74.94
2018-03-26T12:22:46.214Z,75.14
2018-03-26T12:25:12.088Z,74.63
2018-03-26T12:27:50.459Z,73.39
2018-03-26T12:30:20.234Z,73.62
2018-03-26T12:32:46.093Z,73.89
2018-03-26T12:35:24.349Z,74.66
2018-03-26T12:37:50.215Z,74.63
2018-03-26T12:40:28.376Z,75.20
2018-03-26T12:42:54.222Z,75.93
2018-03-26T12:45:32.353Z,75.86
2018-03-26T12:47:58.230Z,76.34
2018-03-26T12:50:37.071Z,77.02
2018-03-26T12:53:02.950Z,77.40
2018-03-26T12:55:28.832Z,77.76
2018-03-26T12:58:07.102Z,78.19
2018-03-26T13:00:32.972Z,78.13
2018-03-26T13:02:58.820Z,77.80
2018-03-26T13:05:24.716Z,77.89
2018-03-26T13:07:50.575Z,77.55
2018-03-26T13:10:16.432Z,77.10
2018-03-26T13:12:42.345Z,76.26
2018-03-26T13:15:08.211Z,75.30
2018-03-26T13:17:34.065Z,75.33
2018-03-26T13:19:59.966Z,75.07
2018-03-26T13:22:25.908Z,73.80
2018-03-26T13:24:51.779Z,73.72
2018-03-26T13:27:17.674Z,74.24
2018-03-26T13:29:43.521Z,73.91
2018-03-26T13:32:09.373Z,73.40
2018-03-26T13:34:35.281Z,73.77
2018-03-26T13:37:01.140Z,72.08
2018-03-26T13:39:26.989Z,71.55
2018-03-26T13:41:52.898Z,70.47
2018-03-26T13:44:18.752Z,69.43
2018-03-26T13:46:44.625Z,69.17
2018-03-26T13:49:10.525Z,68.44
2018-03-26T13:51:36.404Z,68.40
2018-03-26T13:54:02.285Z,69.33
2018-03-26T13:56:28.196Z,69.04
2018-03-26T13:58:54.055Z,67.95
2018-03-26T14:01:19.912Z,68.96
2018-03-26T14:03:45.828Z,67.86
2018-03-26T14:06:11.718Z,67.34
2018-03-26T14:08:49.997Z,68.01
2018-03-26T14:11:28.173Z,67.65
2018-03-26T14:14:06.349Z,67.94
2018-03-26T14:16:44.483Z,67.91
2018-03-26T14:19:10.372Z,67.09
2018-03-26T14:21:36.225Z,66.59
2018-03-26T14:24:02.158Z,64.62
2018-03-26T14:26:28.052Z,64.28
2018-03-26T14:28:53.913Z,61.51
2018-03-26T14:31:19.808Z,59.23
2018-03-26T14:33:45.702Z,59.60
2018-03-26T14:36:11.562Z,59.31
2018-03-26T14:38:37.513Z,56.56
2018-03-26T14:41:03.430Z,56.59
2018-03-26T14:43:29.383Z,56.78
2018-03-26T14:45:55.260Z,57.04
2018-03-26T14:48:21.269Z,56.22
2018-03-26T14:50:47.176Z,57.09
2018-03-26T14:53:13.030Z,57.08
2018-03-26T14:55:38.949Z,58.33
2018-03-26T14:58:04.812Z,57.80
2018-03-26T15:00:30.792Z,56.73
2018-03-26T15:02:56.702Z,55.08
2018-03-26T15:05:22.557Z,55.81
2018-03-26T15:07:48.437Z,58.36
2018-03-26T15:10:14.413Z,57.25
2018-03-26T15:12:40.365Z,55.92
2018-03-26T15:15:06.266Z,54.72
2018-03-26T15:17:32.197Z,57.01
2018-03-26T15:19:58.052Z,57.89
2018-03-26T15:22:23.926Z,57.62
2018-03-26T15:24:49.837Z,57.77
2018-03-26T15:27:15.758Z,57.64
2018-03-26T15:29:41.609Z,56.31
2018-03-26T15:32:07.551Z,56.20
2018-03-26T15:34:33.418Z,55.56
2018-03-26T15:36:59.302Z,55.37
2018-03-26T15:39:25.198Z,56.10
2018-03-26T15:41:51.080Z,55.03
2018-03-26T15:44:16.953Z,56.17
2018-03-26T15:46:42.869Z,55.74
2018-03-26T15:49:08.733Z,56.02
2018-03-26T15:51:34.720Z,58.72
2018-03-26T15:54:00.607Z,58.09
2018-03-26T15:56:26.502Z,57.13
2018-03-26T15:58:52.364Z,57.36
2018-03-26T16:01:18.514Z,57.84
2018-03-26T16:03:44.405Z,57.84
2018-03-26T16:06:10.275Z,56.72
2018-03-26T16:08:36.180Z,56.05
2018-03-26T16:11:02.066Z,57.21
2018-03-26T16:13:28.022Z,56.11
2018-03-26T16:15:53.920Z,55.16
2018-03-26T16:18:19.797Z,54.83
2018-03-26T16:20:45.644Z,54.94
2018-03-26T16:23:11.553Z,54.70
2018-03-26T16:25:37.514Z,53.63
2018-03-26T16:28:03.372Z,54.84
2018-03-26T16:30:29.264Z,54.16
2018-03-26T16:32:55.141Z,55.87
2018-03-26T16:35:20.997Z,54.14
2018-03-26T16:37:47.007Z,57.16
2018-03-26T16:40:12.853Z,55.86
2018-03-26T16:42:42.473Z,55.10
2018-03-26T16:45:08.462Z,56.01
2018-03-26T16:47:34.317Z,56.45
2018-03-26T16:50:00.181Z,57.37
2018-03-26T16:52:26.080Z,57.34
2018-03-26T16:54:51.948Z,58.55
2018-03-26T16:57:17.890Z,58.30
2018-03-26T16:59:43.769Z,58.48
2018-03-26T17:02:09.617Z,58.75
2018-03-26T17:04:35.866Z,58.85
2018-03-26T17:07:01.834Z,59.06
2018-03-26T17:09:27.742Z,59.25
2018-03-26T17:11:53.620Z,59.37
2018-03-26T17:14:19.533Z,61.03
2018-03-26T17:16:45.390Z,61.11
2018-03-26T17:19:11.442Z,62.42
2018-03-26T17:21:37.698Z,62.76
2018-03-26T17:24:03.615Z,63.66
2018-03-26T17:26:29.481Z,63.23
2018-03-26T17:28:55.408Z,63.85
2018-03-26T17:31:21.409Z,64.73
2018-03-26T17:33:47.322Z,65.04
2018-03-26T17:36:13.343Z,65.29
2018-03-26T17:38:39.325Z,65.14
2018-03-26T17:41:05.238Z,66.44
2018-03-26T17:43:31.136Z,67.42
2018-03-26T17:45:57.155Z,67.73
2018-03-26T17:48:31.980Z,67.85
2018-03-26T17:50:58.106Z,67.45
2018-03-26T17:53:23.992Z,68.09
2018-03-26T17:55:49.898Z,68.67
2018-03-26T17:58:15.767Z,68.56
2018-03-26T18:00:42.215Z,69.01
2018-03-26T18:03:08.700Z,69.16
2018-03-26T18:05:34.588Z,69.42
2018-03-26T18:08:00.508Z,69.63
2018-03-26T18:10:26.418Z,69.96
2018-03-26T18:12:52.297Z,70.03
2018-03-26T18:15:18.203Z,69.82
2018-03-26T18:17:44.125Z,70.82
2018-03-26T18:20:09.997Z,70.58
2018-03-26T18:22:35.921Z,70.25
2018-03-26T18:25:01.820Z,70.60
2018-03-26T18:27:27.685Z,71.22
2018-03-26T18:29:53.658Z,71.43
2018-03-26T18:32:19.586Z,71.24
2018-03-26T18:34:45.454Z,70.74
2018-03-26T18:37:11.314Z,70.59
2018-03-26T18:39:37.241Z,70.41
2018-03-26T18:42:03.105Z,71.37
2018-03-26T18:44:29.028Z,70.86
2018-03-26T18:46:54.929Z,71.23
2018-03-26T18:49:20.784Z,71.88
2018-03-26T18:51:46.714Z,72.31
2018-03-26T18:54:12.724Z,71.58
2018-03-26T18:56:38.708Z,72.10
2018-03-26T18:59:05.688Z,72.31
2018-03-26T19:01:32.254Z,72.08
2018-03-26T19:03:58.153Z,72.42
2018-03-26T19:06:24.548Z,72.33
2018-03-26T19:08:50.738Z,72.98
2018-03-26T19:11:16.951Z,73.46
2018-03-26T19:13:43.062Z,74.11
2018-03-26T19:16:09.097Z,73.34
2018-03-26T19:18:35.421Z,73.08
2018-03-26T19:21:01.507Z,73.47
2018-03-26T19:23:28.003Z,72.91
2018-03-26T19:25:54.420Z,73.64
2018-03-26T19:28:20.689Z,74.02
2018-03-26T19:30:46.606Z,74.00
2018-03-26T19:33:12.893Z,73.79
2018-03-26T19:35:38.918Z,74.15
2018-03-26T19:38:04.996Z,75.00
2018-03-26T19:40:31.352Z,75.20
2018-03-26T19:42:57.261Z,75.31
2018-03-26T19:45:23.187Z,75.16
2018-03-26T19:47:49.072Z,74.39
2018-03-26T19:50:14.952Z,74.74
2018-03-26T19:52:40.849Z,74.28
2018-03-26T19:55:07.048Z,74.17
2018-03-26T19:57:33.165Z,74.24
2018-03-26T19:59:59.343Z,74.10
2018-03-26T20:02:25.649Z,73.95
2018-03-26T20:04:52.768Z,74.73
2018-03-26T20:07:18.863Z,74.19
2018-03-26T20:09:44.823Z,73.88
2018-03-26T20:12:10.891Z,74.11
2018-03-26T20:14:36.843Z,74.93
2018-03-26T20:17:02.849Z,75.11
2018-03-26T20:19:28.763Z,75.01
2018-03-26T20:21:55.049Z,75.89
2018-03-26T20:24:20.917Z,76.08
2018-03-26T20:26:47.002Z,75.55
2018-03-26T20:29:13.213Z,76.43
2018-03-26T20:31:39.307Z,76.14
2018-03-26T20:34:05.418Z,76.12
2018-03-26T20:36:31.895Z,76.56
2018-03-26T20:38:57.954Z,75.69
2018-03-26T20:41:24.264Z,75.77
2018-03-26T20:43:50.716Z,75.51
2018-03-26T20:46:16.747Z,75.06
2018-03-26T20:48:43.019Z,75.69
2018-03-26T20:51:09.194Z,75.28
2018-03-26T20:53:35.666Z,75.47
2018-03-26T20:56:01.867Z,76.13
2018-03-26T20:58:27.943Z,75.90
2018-03-26T21:00:54.078Z,76.09
2018-03-26T21:03:20.043Z,75.15
2018-03-26T21:05:46.400Z,75.41
2018-03-26T21:08:12.400Z,75.32
2018-03-26T21:10:38.556Z,75.53
2018-03-26T21:13:04.587Z,75.72
2018-03-26T21:15:30.528Z,75.75
2018-03-26T21:17:56.714Z,75.32
2018-03-26T21:20:22.841Z,75.90
2018-03-26T21:22:48.785Z,75.58
2018-03-26T21:25:14.763Z,76.67
2018-03-26T21:27:40.895Z,76.24
2018-03-26T21:30:07.177Z,76.21
2018-03-26T21:32:33.102Z,75.38
2018-03-26T21:34:59.012Z,75.43
2018-03-26T21:37:25.107Z,75.84
2018-03-26T21:39:51.411Z,75.28
2018-03-26T21:42:17.599Z,75.47
2018-03-26T21:44:43.484Z,75.11
2018-03-26T21:47:09.354Z,75.11
2018-03-26T21:49:35.287Z,75.10
2018-03-26T21:52:01.244Z,75.23
2018-03-26T21:54:27.144Z,75.34
2018-03-26T21:56:53.057Z,75.59
2018-03-26T21:59:19.048Z,75.50
2018-03-26T22:01:44.935Z,75.90
2018-03-26T22:04:11.731Z,75.87
2018-03-26T22:06:37.660Z,75.36
2018-03-26T22:09:03.540Z,75.29
2018-03-26T22:11:29.525Z,75.22
2018-03-26T22:13:55.404Z,74.65
2018-03-26T22:16:21.370Z,75.62
2018-03-26T22:18:47.265Z,75.35
2018-03-26T22:21:13.128Z,75.69
2018-03-26T22:23:39.068Z,75.40
2018-03-26T22:26:04.985Z,75.44
2018-03-26T22:28:30.838Z,75.72
2018-03-26T22:30:56.692Z,75.61
2018-03-26T22:33:22.596Z,75.74
2018-03-26T22:35:48.460Z,76.36
2018-03-26T22:38:14.320Z,75.33
2018-03-26T22:40:40.217Z,75.48
2018-03-26T22:43:06.118Z,75.16
2018-03-26T22:45:32.021Z,75.42
2018-03-26T22:47:57.921Z,75.70
2018-03-26T22:50:23.809Z,74.70
2018-03-26T22:52:49.668Z,74.88
2018-03-26T22:55:15.566Z,75.52
2018-03-26T22:57:41.508Z,75.38
2018-03-26T23:00:07.437Z,76.00
2018-03-26T23:02:33.318Z,74.97
2018-03-26T23:04:59.209Z,75.77
2018-03-26T23:07:25.092Z,75.50
2018-03-26T23:09:51.307Z,76.27
2018-03-26T23:12:17.173Z,75.42
2018-03-26T23:14:43.037Z,74.85
2018-03-26T23:17:08.930Z,75.25
2018-03-26T23:19:34.792Z,76.22
2018-03-26T23:22:00.646Z,73.96
2018-03-26T23:24:26.542Z,75.32
2018-03-26T23:26:52.501Z,74.68
2018-03-26T23:29:18.355Z,75.55
2018-03-26T23:31:44.260Z,75.25
2018-03-26T23:34:10.130Z,74.14
2018-03-26T23:36:35.994Z,74.48
2018-03-26T23:39:01.930Z,74.61
2018-03-26T23:41:27.872Z,74.75
2018-03-26T23:43:53.720Z,74.04
2018-03-26T23:46:19.633Z,74.12
2018-03-26T23:48:45.584Z,74.52
2018-03-26T23:51:11.452Z,74.61
2018-03-26T23:53:37.389Z,75.16
2018-03-26T23:56:03.237Z,75.48
2018-03-26T23:58:29.096Z,75.09
